Weather at Harry Mwanga Nkumbula International Airport

Public forecast

Using degrees Celsius for public forecast. Weather courtesy of forecast.io.

Current aviation weather report (METAR) for Harry Mwanga Nkumbula International Airport

Report is more than 6 hours old.

Retrieved 2020/11/26 11:00 UTC (18 hours ago):

FLHN 261100Z 09006KT 9999 FEW035 30/18 Q1016 NOSIG

Closest aviation forecast (TAF) to Harry Mwanga Nkumbula International Airport

Forecast is more than 6 hours old.

Retrieved 2020/11/26 18:17 UTC (11 hours ago):

TAF FLHN 261600Z 2618/2724 16005KT CAVOK BECMG 2704/2706 09005KT 9999 SCT015 PROB40 TEMPO 2709/2711 06010KT 9000 -TSRA FEW025CB BKN030 BECMG 2714/2716 09005KT 9999 SCT035CB SCT045